Time;durP1;ratioP1;P1;durP2;ratioP2;P2;SDS_P1;SDS_P2;PMS_P1;PMS_P2;Temp;Humidity;BMP_temperature;BMP_pressure;BME280_temperature;BME280_humidity;BME280_pressure;Samples;Min_cycle;Max_cycle;Signal;HPM_P1;HPM_P2
2023/07/04 00:01:47;;;;;;;5.27;3.30;;;17.40;99.40;;;;;;5041299;28;21143;-59
2023/07/04 00:04:15;;;;;;;5.80;3.53;;;17.40;99.50;;;;;;5040465;28;20457;-58
2023/07/04 00:06:40;;;;;;;5.80;3.60;;;17.40;99.80;;;;;;5042615;28;20433;-61
2023/07/04 00:09:07;;;;;;;7.00;3.40;;;17.40;99.90;;;;;;5044494;28;20492;-59
2023/07/04 00:11:33;;;;;;;6.63;2.87;;;17.40;99.90;;;;;;5041744;28;20234;-60
2023/07/04 00:13:59;;;;;;;4.30;2.83;;;17.40;99.90;;;;;;5044160;28;20436;-59
2023/07/04 00:16:25;;;;;;;7.80;3.23;;;17.40;99.90;;;;;;5035495;28;20437;-59
2023/07/04 00:18:51;;;;;;;7.50;3.60;;;17.40;99.90;;;;;;5035859;28;20183;-60
2023/07/04 00:21:18;;;;;;;8.50;3.23;;;17.30;99.90;;;;;;5039888;28;20184;-60
2023/07/04 00:23:47;;;;;;;7.07;3.23;;;17.30;99.90;;;;;;5041295;28;20214;-58
2023/07/04 00:26:16;;;;;;;3.50;2.57;;;17.30;99.90;;;;;;5042775;28;20421;-60
2023/07/04 00:28:43;;;;;;;8.67;3.43;;;17.30;99.90;;;;;;5041541;28;20827;-58
2023/07/04 00:31:10;;;;;;;5.20;3.17;;;17.30;99.90;;;;;;5040364;28;20480;-59
2023/07/04 00:33:36;;;;;;;4.27;2.90;;;17.30;99.90;;;;;;5033084;28;20467;-59
2023/07/04 00:36:05;;;;;;;4.87;2.90;;;17.30;99.90;;;;;;5034134;28;20456;-59
2023/07/04 00:38:34;;;;;;;6.27;3.40;;;17.30;99.90;;;;;;5041040;28;21013;-59
2023/07/04 00:41:02;;;;;;;4.17;2.93;;;17.20;99.90;;;;;;5041933;28;20437;-60
2023/07/04 00:43:58;;;;;;;7.53;2.83;;;17.20;99.90;;;;;;5044411;28;20426;-59
2023/07/04 00:46:37;;;;;;;9.60;2.97;;;17.20;99.90;;;;;;5039746;28;20434;-60
2023/07/04 00:49:41;;;;;;;3.57;3.00;;;17.30;99.90;;;;;;5038228;28;20437;-59
2023/07/04 00:52:15;;;;;;;4.70;2.87;;;17.30;99.90;;;;;;5045691;28;20461;-59
2023/07/04 00:55:02;;;;;;;8.20;3.40;;;17.30;99.90;;;;;;5045915;28;20417;-59
2023/07/04 00:57:31;;;;;;;5.23;3.30;;;17.30;99.90;;;;;;5038985;28;20452;-60
2023/07/04 00:59:58;;;;;;;6.57;3.40;;;17.30;99.90;;;;;;5042240;28;20481;-60
2023/07/04 01:02:27;;;;;;;5.23;3.00;;;17.30;99.90;;;;;;5047697;28;21179;-59
2023/07/04 01:04:54;;;;;;;6.57;3.37;;;17.30;99.90;;;;;;5046126;28;20422;-59
2023/07/04 01:07:35;;;;;;;7.17;3.33;;;17.30;99.90;;;;;;5041052;28;20531;-59
2023/07/04 01:10:20;;;;;;;9.20;3.13;;;17.30;99.90;;;;;;5035030;28;20450;-60
2023/07/04 01:12:46;;;;;;;6.20;3.50;;;17.40;99.90;;;;;;5040620;28;20473;-59
2023/07/04 01:15:12;;;;;;;6.00;3.47;;;17.40;99.90;;;;;;5042153;28;20468;-59
2023/07/04 01:17:42;;;;;;;4.10;3.23;;;17.30;99.90;;;;;;5046018;28;20504;-59
2023/07/04 01:20:11;;;;;;;3.83;3.07;;;17.30;99.90;;;;;;5046025;28;20438;-59
2023/07/04 01:22:56;;;;;;;4.47;3.20;;;17.30;99.90;;;;;;5034949;28;20449;-58
2023/07/04 01:25:43;;;;;;;7.23;3.73;;;17.20;99.90;;;;;;5045891;28;20504;-59
2023/07/04 01:28:13;;;;;;;6.10;3.60;;;17.20;99.90;;;;;;5035089;28;20421;-59
2023/07/04 01:30:41;;;;;;;5.30;3.50;;;17.10;99.90;;;;;;5039411;28;20545;-59
2023/07/04 01:33:08;;;;;;;14.50;4.47;;;17.10;99.90;;;;;;5041202;28;20474;-59
2023/07/04 01:35:34;;;;;;;7.70;3.57;;;17.10;99.90;;;;;;5035073;28;20426;-59
2023/07/04 01:38:00;;;;;;;4.23;3.60;;;17.00;99.90;;;;;;5039131;28;20817;-59
2023/07/04 01:40:27;;;;;;;8.57;3.77;;;17.00;99.90;;;;;;5027847;28;20441;-60
2023/07/04 01:42:53;;;;;;;4.80;3.60;;;16.90;99.90;;;;;;5036799;28;20802;-59
2023/07/04 01:45:19;;;;;;;7.27;3.80;;;16.80;99.90;;;;;;5034294;28;20440;-60
2023/07/04 01:47:45;;;;;;;5.10;3.50;;;16.70;99.90;;;;;;5036674;28;20954;-59
2023/07/04 01:50:12;;;;;;;7.10;3.67;;;16.70;99.90;;;;;;5037358;28;20557;-59
2023/07/04 01:52:39;;;;;;;5.13;3.27;;;16.60;99.90;;;;;;5037876;28;20206;-60
2023/07/04 01:55:06;;;;;;;6.13;3.13;;;16.60;99.90;;;;;;5037813;28;20473;-58
2023/07/04 01:57:32;;;;;;;5.23;3.30;;;16.50;99.90;;;;;;5038216;28;20508;-59
2023/07/04 01:59:57;;;;;;;7.63;4.10;;;16.50;99.90;;;;;;5033356;28;20534;-59
2023/07/04 02:02:23;;;;;;;9.03;3.97;;;16.50;99.90;;;;;;5026409;28;20183;-58
2023/07/04 02:04:49;;;;;;;4.30;3.27;;;16.50;99.90;;;;;;5039024;28;20184;-59
2023/07/04 02:07:14;;;;;;;7.97;4.33;;;16.50;99.90;;;;;;5041040;28;20182;-58
2023/07/04 02:09:42;;;;;;;5.93;3.57;;;16.50;99.90;;;;;;5040875;28;20186;-59
2023/07/04 02:12:09;;;;;;;7.00;3.77;;;16.50;99.90;;;;;;5039448;28;20198;-59
2023/07/04 02:14:34;;;;;;;6.07;4.10;;;16.50;99.90;;;;;;5044865;28;20430;-59
2023/07/04 02:17:00;;;;;;;6.27;3.50;;;16.50;99.90;;;;;;5038393;28;20475;-59
2023/07/04 02:19:25;;;;;;;5.20;3.70;;;16.50;99.90;;;;;;5034182;28;20190;-59
2023/07/04 02:21:51;;;;;;;7.73;3.77;;;16.50;99.90;;;;;;5042455;28;20187;-60
2023/07/04 02:24:17;;;;;;;5.67;3.33;;;16.50;99.90;;;;;;5041681;28;20199;-61
2023/07/04 02:26:42;;;;;;;6.37;3.60;;;16.50;99.90;;;;;;5044010;28;20172;-60
2023/07/04 02:29:08;;;;;;;5.00;3.57;;;16.50;99.90;;;;;;5035528;28;20652;-60
2023/07/04 02:31:33;;;;;;;5.90;3.80;;;16.50;99.90;;;;;;5039633;28;20198;-59
2023/07/04 02:33:59;;;;;;;14.00;3.67;;;16.50;99.90;;;;;;5038960;28;20305;-60
2023/07/04 02:36:25;;;;;;;10.27;4.70;;;16.50;99.90;;;;;;5034933;28;20183;-60
2023/07/04 02:38:50;;;;;;;5.37;4.07;;;16.50;99.90;;;;;;5030419;28;20179;-60
2023/07/04 02:41:16;;;;;;;6.30;4.40;;;16.50;99.90;;;;;;5034487;28;20340;-60
2023/07/04 02:43:42;;;;;;;8.73;4.73;;;16.50;99.90;;;;;;5039968;28;20168;-60
2023/07/04 02:46:08;;;;;;;7.37;4.60;;;16.50;99.90;;;;;;5037296;28;20199;-59
2023/07/04 02:48:34;;;;;;;8.60;4.40;;;16.50;99.90;;;;;;5041619;28;20183;-57
2023/07/04 02:51:00;;;;;;;9.03;5.13;;;16.50;99.90;;;;;;5041442;28;20488;-59
2023/07/04 02:53:26;;;;;;;6.67;4.17;;;16.50;99.90;;;;;;5036383;28;20473;-59
2023/07/04 02:55:54;;;;;;;6.23;3.70;;;16.50;99.90;;;;;;5035812;28;20422;-59
2023/07/04 02:58:20;;;;;;;6.73;3.60;;;16.50;99.90;;;;;;5042267;28;20429;-59
2023/07/04 03:00:49;;;;;;;6.67;3.93;;;16.40;99.90;;;;;;5041753;28;20453;-61
2023/07/04 03:03:16;;;;;;;5.97;3.60;;;16.40;99.90;;;;;;5035826;28;20429;-59
2023/07/04 03:05:42;;;;;;;4.90;3.73;;;16.40;99.90;;;;;;5046240;28;20509;-59
2023/07/04 03:08:08;;;;;;;8.63;3.70;;;16.40;99.90;;;;;;5041865;28;20506;-59
2023/07/04 03:10:34;;;;;;;5.70;3.63;;;16.30;99.90;;;;;;5034751;28;20454;-59
2023/07/04 03:13:00;;;;;;;4.40;3.20;;;16.30;99.90;;;;;;5039107;28;20453;-59
2023/07/04 03:15:26;;;;;;;9.90;3.87;;;16.30;99.90;;;;;;5044320;28;20186;-59
2023/07/04 03:17:52;;;;;;;4.23;3.03;;;16.20;99.90;;;;;;5039275;28;20443;-60
2023/07/04 03:20:18;;;;;;;5.57;3.20;;;16.10;99.90;;;;;;5043928;28;20441;-60
2023/07/04 03:22:44;;;;;;;3.70;2.60;;;16.10;99.90;;;;;;5027396;28;20270;-58
2023/07/04 03:25:11;;;;;;;4.03;2.73;;;16.00;99.90;;;;;;5034489;28;20185;-59
2023/07/04 03:27:38;;;;;;;7.03;3.40;;;16.00;99.90;;;;;;5043628;28;20444;-59
2023/07/04 03:30:06;;;;;;;6.90;3.83;;;16.00;99.90;;;;;;5041016;28;20445;-59
2023/07/04 03:32:32;;;;;;;7.30;3.10;;;15.90;99.90;;;;;;5034942;28;20450;-59
2023/07/04 03:35:01;;;;;;;4.57;3.10;;;15.90;99.90;;;;;;5037033;28;20488;-58
2023/07/04 03:37:31;;;;;;;5.93;3.30;;;15.90;99.90;;;;;;5040559;28;20819;-58
2023/07/04 03:39:58;;;;;;;4.77;3.90;;;15.90;99.90;;;;;;5030597;28;20927;-59
2023/07/04 03:42:24;;;;;;;3.77;3.23;;;15.90;99.90;;;;;;5041995;28;20420;-60
2023/07/04 03:44:50;;;;;;;6.63;4.03;;;15.90;99.90;;;;;;5034546;28;20430;-59
2023/07/04 03:47:16;;;;;;;4.60;3.07;;;15.90;99.90;;;;;;5031145;28;20433;-59
2023/07/04 03:49:42;;;;;;;5.40;3.70;;;15.90;99.90;;;;;;5037640;28;20432;-60
2023/07/04 03:52:08;;;;;;;8.87;3.57;;;15.90;99.90;;;;;;5031607;28;20291;-60
2023/07/04 03:54:34;;;;;;;5.57;3.70;;;15.90;99.90;;;;;;5038330;28;20182;-60
2023/07/04 03:57:00;;;;;;;7.70;3.73;;;15.90;99.90;;;;;;5037270;28;20179;-59
2023/07/04 03:59:26;;;;;;;5.90;3.40;;;15.90;99.90;;;;;;5039409;28;20179;-60
2023/07/04 04:01:51;;;;;;;7.50;4.10;;;16.00;99.90;;;;;;5031492;28;20455;-57
2023/07/04 04:04:17;;;;;;;6.37;3.63;;;16.00;99.90;;;;;;5016825;28;20805;-60
2023/07/04 04:06:42;;;;;;;8.63;4.33;;;16.10;99.90;;;;;;5010427;28;20250;-57
2023/07/04 04:09:08;;;;;;;7.77;4.90;;;16.00;99.90;;;;;;5025032;28;20187;-58
2023/07/04 04:11:34;;;;;;;6.00;3.57;;;16.00;99.90;;;;;;5023184;28;20195;-57
2023/07/04 04:13:59;;;;;;;6.47;3.80;;;16.00;99.90;;;;;;5030083;28;20176;-57
2023/07/04 04:16:25;;;;;;;7.37;4.20;;;16.00;99.90;;;;;;5029140;28;20186;-57
2023/07/04 04:18:51;;;;;;;3.67;3.33;;;16.00;99.90;;;;;;5013334;28;20425;-58
2023/07/04 04:21:17;;;;;;;14.03;3.53;;;16.00;99.90;;;;;;5031826;28;20207;-58
2023/07/04 04:23:43;;;;;;;5.43;3.20;;;16.00;99.90;;;;;;5025631;28;20418;-60
2023/07/04 04:26:09;;;;;;;8.90;3.80;;;16.00;99.90;;;;;;5035987;28;20430;-60
2023/07/04 04:28:34;;;;;;;5.53;2.97;;;16.00;99.90;;;;;;5036706;28;20210;-60
2023/07/04 04:31:00;;;;;;;5.20;3.50;;;15.90;99.90;;;;;;5028641;28;20977;-58
2023/07/04 04:33:26;;;;;;;6.70;3.43;;;15.90;99.90;;;;;;5038776;28;20268;-60
2023/07/04 04:35:51;;;;;;;8.87;3.93;;;15.80;99.90;;;;;;5033996;28;20187;-60
2023/07/04 04:38:17;;;;;;;3.97;3.33;;;15.80;99.90;;;;;;5029129;28;20278;-59
2023/07/04 04:40:43;;;;;;;7.33;4.30;;;15.80;99.90;;;;;;5032146;28;20685;-57
2023/07/04 04:43:09;;;;;;;8.23;4.10;;;15.80;99.90;;;;;;5023589;28;20673;-55
2023/07/04 04:45:36;;;;;;;7.20;3.80;;;15.80;99.90;;;;;;5030432;28;20518;-55
2023/07/04 04:48:06;;;;;;;6.27;4.20;;;15.80;99.90;;;;;;5033204;28;20195;-59
2023/07/04 04:50:31;;;;;;;4.63;3.50;;;15.90;99.90;;;;;;5023338;28;20771;-59
2023/07/04 04:52:59;;;;;;;6.90;3.67;;;15.90;99.90;;;;;;5020524;28;20469;-58
2023/07/04 04:55:25;;;;;;;7.30;3.60;;;16.00;99.90;;;;;;5023070;28;20184;-58
2023/07/04 04:57:52;;;;;;;4.10;3.23;;;16.00;99.90;;;;;;5032456;28;20915;-58
2023/07/04 05:00:18;;;;;;;9.43;3.70;;;16.00;99.90;;;;;;5036364;28;20456;-59
2023/07/04 05:02:44;;;;;;;9.30;4.00;;;16.10;99.90;;;;;;5032948;28;20507;-59
2023/07/04 05:05:11;;;;;;;4.67;3.00;;;16.30;99.90;;;;;;5038422;28;20925;-60
2023/07/04 05:07:37;;;;;;;7.03;3.13;;;16.30;99.90;;;;;;5044412;28;20429;-59
2023/07/04 05:10:04;;;;;;;6.37;3.83;;;16.40;99.90;;;;;;5039151;28;20991;-59
2023/07/04 05:12:30;;;;;;;4.53;2.40;;;16.40;99.90;;;;;;5037762;28;20454;-58
2023/07/04 05:14:56;;;;;;;3.70;2.90;;;16.40;99.90;;;;;;5040917;28;20427;-60
2023/07/04 05:17:23;;;;;;;3.80;3.10;;;16.50;99.90;;;;;;5036000;28;20203;-60
2023/07/04 05:19:49;;;;;;;4.77;2.80;;;16.50;99.90;;;;;;5034723;28;20549;-61
2023/07/04 05:22:19;;;;;;;5.90;3.20;;;16.60;99.90;;;;;;5042311;28;20430;-59
2023/07/04 05:24:45;;;;;;;7.57;3.30;;;16.60;99.90;;;;;;5039887;28;20460;-60
2023/07/04 05:27:10;;;;;;;7.97;3.10;;;16.70;99.90;;;;;;5038770;28;20531;-60
2023/07/04 05:29:36;;;;;;;2.60;2.23;;;16.80;99.90;;;;;;5033872;28;20187;-59
2023/07/04 05:32:02;;;;;;;3.20;2.80;;;16.80;99.90;;;;;;5041045;28;20251;-59
2023/07/04 05:34:27;;;;;;;4.20;2.40;;;16.90;99.90;;;;;;5033348;28;20244;-59
2023/07/04 05:36:53;;;;;;;3.67;2.40;;;17.00;99.90;;;;;;5035811;28;20664;-60
2023/07/04 05:39:18;;;;;;;6.93;2.93;;;17.00;99.90;;;;;;5035966;28;20270;-59
2023/07/04 05:41:44;;;;;;;2.90;2.50;;;17.00;99.90;;;;;;5029605;28;20195;-60
2023/07/04 05:44:10;;;;;;;5.17;3.07;;;17.20;99.90;;;;;;5031930;28;20560;-60
2023/07/04 05:46:36;;;;;;;3.37;2.63;;;17.30;99.90;;;;;;5037555;28;20167;-60
2023/07/04 05:49:03;;;;;;;2.70;2.13;;;17.40;99.90;;;;;;5041799;28;20528;-59
2023/07/04 05:51:29;;;;;;;3.10;2.63;;;17.40;99.90;;;;;;5037999;28;20446;-60
2023/07/04 05:53:55;;;;;;;2.97;2.73;;;17.50;99.90;;;;;;5043313;28;20461;-59
2023/07/04 05:56:30;;;;;;;3.20;2.90;;;17.60;99.90;;;;;;5042590;28;20833;-58
2023/07/04 05:58:57;;;;;;;5.70;2.47;;;17.70;99.90;;;;;;5043570;28;20540;-59
2023/07/04 06:01:33;;;;;;;3.23;2.30;;;17.80;99.30;;;;;;5034761;28;20450;-58
2023/07/04 06:04:01;;;;;;;4.13;2.57;;;17.80;98.20;;;;;;5030619;28;20426;-58
2023/07/04 06:06:34;;;;;;;8.33;3.03;;;17.80;99.30;;;;;;5034568;28;20438;-58
2023/07/04 06:09:01;;;;;;;3.20;2.57;;;17.80;99.90;;;;;;5033434;28;20417;-59
2023/07/04 06:11:31;;;;;;;6.20;2.57;;;17.80;98.90;;;;;;5032746;28;20476;-58
2023/07/04 06:13:57;;;;;;;3.13;2.50;;;17.90;98.20;;;;;;5035272;28;20971;-59
2023/07/04 06:16:23;;;;;;;6.27;2.30;;;18.00;93.80;;;;;;5044349;28;20426;-58
2023/07/04 06:18:50;;;;;;;4.30;2.40;;;18.10;94.10;;;;;;5031622;28;20968;-53
2023/07/04 06:21:23;;;;;;;9.43;2.73;;;18.20;92.90;;;;;;5036300;28;20473;-52
2023/07/04 06:23:50;;;;;;;3.03;2.27;;;18.30;87.50;;;;;;5028461;28;20435;-59
2023/07/04 06:26:16;;;;;;;3.73;2.30;;;18.30;90.20;;;;;;5028965;28;20449;-59
2023/07/04 06:28:42;;;;;;;5.07;2.50;;;18.40;91.20;;;;;;5030800;28;20451;-59
2023/07/04 06:31:14;;;;;;;9.63;2.93;;;18.60;84.90;;;;;;5036272;28;20218;-60
2023/07/04 06:33:41;;;;;;;6.93;2.70;;;18.60;82.00;;;;;;5041016;28;20458;-58
2023/07/04 06:36:11;;;;;;;7.73;2.87;;;18.70;84.00;;;;;;5032923;28;20427;-58
2023/07/04 06:38:37;;;;;;;9.33;2.90;;;18.80;81.30;;;;;;5027336;28;20448;-58
2023/07/04 06:41:07;;;;;;;5.80;2.50;;;18.80;77.00;;;;;;5034875;28;20504;-58
2023/07/04 06:43:33;;;;;;;5.07;3.17;;;18.70;76.00;;;;;;5028216;28;20464;-58
2023/07/04 06:46:00;;;;;;;6.47;2.70;;;18.60;78.00;;;;;;5033382;28;20529;-58
2023/07/04 06:48:27;;;;;;;2.33;2.00;;;18.60;80.00;;;;;;5028582;28;20442;-59
2023/07/04 06:51:07;;;;;;;3.23;2.20;;;18.70;78.70;;;;;;5035837;28;20938;-58
2023/07/04 06:53:34;;;;;;;3.50;2.40;;;18.80;77.50;;;;;;5039480;28;20936;-59
2023/07/04 06:56:14;;;;;;;3.40;2.60;;;18.90;75.60;;;;;;5038141;28;20516;-58
2023/07/04 06:58:42;;;;;;;3.50;2.50;;;19.10;75.20;;;;;;5037929;28;20452;-58
2023/07/04 07:01:10;;;;;;;5.73;2.40;;;19.30;73.00;;;;;;5042674;28;20442;-59
2023/07/04 07:03:37;;;;;;;3.60;2.40;;;19.50;71.40;;;;;;5032494;28;20533;-58
2023/07/04 07:06:04;;;;;;;3.27;2.33;;;19.50;68.60;;;;;;5036149;28;20480;-58
2023/07/04 07:08:30;;;;;;;3.97;2.30;;;19.50;68.90;;;;;;5033124;28;20497;-59
2023/07/04 07:11:01;;;;;;;5.27;3.20;;;19.60;69.00;;;;;;5032423;28;21213;-58
2023/07/04 07:13:27;;;;;;;8.60;3.30;;;19.60;67.50;;;;;;5036650;28;20508;-58
2023/07/04 07:16:24;;;;;;;4.47;2.73;;;19.60;65.90;;;;;;5039079;28;20442;-58
2023/07/04 07:18:51;;;;;;;4.50;2.93;;;19.60;67.10;;;;;;5038600;28;20957;-60
2023/07/04 07:21:20;;;;;;;4.20;2.60;;;19.50;68.50;;;;;;5034780;28;20504;-58
2023/07/04 07:23:46;;;;;;;7.30;2.70;;;19.50;69.00;;;;;;5029014;28;20425;-59
2023/07/04 07:26:16;;;;;;;6.17;3.17;;;19.50;69.60;;;;;;5038913;28;20426;-59
2023/07/04 07:28:42;;;;;;;3.83;2.97;;;19.50;67.20;;;;;;5033747;28;20432;-59
2023/07/04 07:31:10;;;;;;;4.83;3.13;;;19.40;65.70;;;;;;5037117;28;20449;-58
2023/07/04 07:33:37;;;;;;;6.60;3.10;;;19.40;65.40;;;;;;5043284;28;20195;-58
2023/07/04 07:36:14;;;;;;;7.03;3.10;;;19.40;66.30;;;;;;5043286;28;20430;-58
2023/07/04 07:38:39;;;;;;;8.17;3.27;;;19.50;66.40;;;;;;5035457;28;20444;-59
2023/07/04 07:41:06;;;;;;;5.63;3.67;;;19.60;62.70;;;;;;5038672;28;20442;-57
2023/07/04 07:43:33;;;;;;;4.60;3.30;;;19.70;60.60;;;;;;5040720;28;20802;-59
2023/07/04 07:45:58;;;;;;;11.40;3.77;;;19.70;61.70;;;;;;5039549;28;20525;-57
2023/07/04 07:48:24;;;;;;;8.53;3.77;;;19.70;62.50;;;;;;5034420;28;20427;-59
2023/07/04 07:50:49;;;;;;;5.83;3.20;;;19.80;61.80;;;;;;5031857;28;20241;-58
2023/07/04 07:53:15;;;;;;;7.70;3.30;;;19.80;61.90;;;;;;5035907;28;20234;-58
2023/07/04 07:55:41;;;;;;;6.67;3.13;;;19.70;61.60;;;;;;5039727;28;20175;-59
2023/07/04 07:58:08;;;;;;;5.80;3.30;;;19.70;62.30;;;;;;5033084;28;20176;-59
2023/07/04 08:00:34;;;;;;;6.60;3.77;;;19.70;62.30;;;;;;5034859;28;20448;-58
2023/07/04 08:03:00;;;;;;;6.77;3.90;;;19.70;63.00;;;;;;5043080;28;20421;-59
2023/07/04 08:05:25;;;;;;;6.70;4.20;;;19.70;61.40;;;;;;5046534;28;20185;-58
2023/07/04 08:07:51;;;;;;;7.47;3.63;;;19.70;61.30;;;;;;5036053;28;20172;-58
2023/07/04 08:10:17;;;;;;;7.90;3.50;;;19.80;61.80;;;;;;5033066;28;20195;-58
2023/07/04 08:12:43;;;;;;;8.77;3.10;;;20.00;61.00;;;;;;5047234;28;20195;-58
2023/07/04 08:15:10;;;;;;;9.03;3.53;;;20.00;59.50;;;;;;5038872;28;20229;-59
2023/07/04 08:17:36;;;;;;;7.70;4.10;;;20.20;59.70;;;;;;5037843;28;20172;-59
2023/07/04 08:20:03;;;;;;;4.43;3.00;;;20.20;59.40;;;;;;5038323;28;20462;-60
2023/07/04 08:22:29;;;;;;;6.80;3.40;;;20.30;58.70;;;;;;5035008;28;20521;-58
2023/07/04 08:24:55;;;;;;;8.20;3.80;;;20.30;58.60;;;;;;5034341;28;20556;-59
2023/07/04 08:27:24;;;;;;;7.43;3.07;;;20.30;57.20;;;;;;5042825;28;20179;-59
2023/07/04 08:29:50;;;;;;;10.80;3.60;;;20.40;56.30;;;;;;5041137;28;20183;-59
2023/07/04 08:32:17;;;;;;;7.90;3.57;;;20.60;55.80;;;;;;5040897;28;20467;-59
2023/07/04 08:34:42;;;;;;;7.30;3.37;;;20.80;54.90;;;;;;5038075;28;20183;-59
2023/07/04 08:37:09;;;;;;;11.03;3.70;;;20.90;55.70;;;;;;5043716;28;20429;-59
2023/07/04 08:39:35;;;;;;;6.77;3.13;;;21.00;56.40;;;;;;5037565;28;20222;-60
2023/07/04 08:42:03;;;;;;;12.03;3.30;;;21.00;55.60;;;;;;5037001;28;20478;-59
2023/07/04 08:44:35;;;;;;;9.03;3.60;;;21.00;54.90;;;;;;5041242;28;20182;-59
2023/07/04 08:47:01;;;;;;;4.77;2.87;;;20.90;54.90;;;;;;5043100;28;20517;-59
2023/07/04 08:49:27;;;;;;;4.63;3.37;;;20.90;55.00;;;;;;5042655;28;20425;-59
2023/07/04 08:51:58;;;;;;;5.07;2.73;;;20.90;54.60;;;;;;5044268;28;20500;-58
2023/07/04 08:54:26;;;;;;;4.87;3.20;;;21.00;55.50;;;;;;5041361;28;20205;-59
2023/07/04 08:56:55;;;;;;;4.07;3.07;;;21.20;56.70;;;;;;5040048;28;20429;-59
2023/07/04 08:59:38;;;;;;;5.40;2.80;;;21.50;55.50;;;;;;5046131;28;20925;-59
2023/07/04 09:02:23;;;;;;;6.63;2.73;;;21.50;54.80;;;;;;5045423;28;20449;-60
2023/07/04 09:04:56;;;;;;;6.10;2.90;;;21.40;54.80;;;;;;5041375;28;20430;-59
2023/07/04 09:07:28;;;;;;;5.93;2.73;;;21.30;54.40;;;;;;5044636;28;20461;-58
2023/07/04 09:10:07;;;;;;;6.37;2.70;;;21.30;55.10;;;;;;5044527;28;20426;-59
2023/07/04 09:12:36;;;;;;;3.03;2.27;;;21.20;54.70;;;;;;5047500;28;20461;-59
2023/07/04 09:15:29;;;;;;;6.37;2.93;;;21.30;53.90;;;;;;5040090;28;20429;-59
2023/07/04 09:18:17;;;;;;;4.03;2.67;;;21.20;53.60;;;;;;5045488;28;20479;-60
2023/07/04 09:20:53;;;;;;;5.37;2.43;;;21.10;53.00;;;;;;5035172;28;20450;-59
2023/07/04 09:23:22;;;;;;;4.93;2.40;;;21.00;54.10;;;;;;5036290;28;20432;-60
2023/07/04 09:25:49;;;;;;;3.90;3.03;;;21.10;54.60;;;;;;5031665;28;20568;-63
2023/07/04 09:28:15;;;;;;;5.67;2.63;;;21.20;55.00;;;;;;5042280;28;20580;-58
2023/07/04 09:30:40;;;;;;;4.17;2.43;;;21.30;54.80;;;;;;5037941;28;21029;-59
2023/07/04 09:33:09;;;;;;;4.83;2.43;;;21.30;54.50;;;;;;5035622;28;20574;-59
2023/07/04 09:35:35;;;;;;;2.40;2.10;;;21.20;54.80;;;;;;5032892;28;21146;-60
2023/07/04 09:38:01;;;;;;;3.80;2.40;;;21.20;55.10;;;;;;5035761;28;20446;-59
2023/07/04 09:40:50;;;;;;;3.17;2.37;;;21.20;55.40;;;;;;5038073;28;20313;-59
2023/07/04 09:43:31;;;;;;;7.90;2.40;;;21.10;55.60;;;;;;5041094;28;20950;-60
2023/07/04 09:46:30;;;;;;;3.53;2.40;;;21.00;55.50;;;;;;5041743;28;20428;-59
2023/07/04 09:49:33;;;;;;;7.33;2.60;;;21.00;55.60;;;;;;5025662;28;20435;-59
2023/07/04 09:52:09;;;;;;;3.40;2.23;;;20.90;55.90;;;;;;5042025;28;20989;-59
2023/07/04 09:54:36;;;;;;;3.37;2.50;;;20.90;56.60;;;;;;5041677;28;20506;-60
2023/07/04 09:57:23;;;;;;;3.90;2.13;;;20.90;56.50;;;;;;5040192;28;20450;-60
2023/07/04 09:59:52;;;;;;;7.00;2.40;;;21.10;56.50;;;;;;5029227;28;21201;-60
2023/07/04 10:02:19;;;;;;;2.47;2.27;;;21.30;55.90;;;;;;5043776;28;20434;-60
2023/07/04 10:04:50;;;;;;;3.43;2.10;;;21.50;56.20;;;;;;5048027;28;20531;-60
2023/07/04 10:07:18;;;;;;;2.70;2.03;;;21.60;56.00;;;;;;5043207;28;20997;-59
2023/07/04 10:09:56;;;;;;;7.60;2.57;;;21.60;55.70;;;;;;5030750;28;20438;-60
2023/07/04 10:12:24;;;;;;;2.00;1.80;;;21.60;55.60;;;;;;5038099;28;20568;-59
2023/07/04 10:14:53;;;;;;;2.80;2.30;;;21.60;55.90;;;;;;5038185;28;20471;-60
2023/07/04 10:17:19;;;;;;;4.60;2.30;;;21.60;55.70;;;;;;5037053;28;20449;-60
2023/07/04 10:19:54;;;;;;;6.70;2.40;;;21.50;56.00;;;;;;5042394;28;20505;-59
2023/07/04 10:22:30;;;;;;;6.17;2.93;;;21.40;56.20;;;;;;5034520;28;20429;-60
2023/07/04 10:24:58;;;;;;;3.17;2.20;;;21.40;57.10;;;;;;5026800;28;20554;-60
2023/07/04 10:27:31;;;;;;;3.53;2.60;;;21.40;56.80;;;;;;5031915;28;20434;-60
2023/07/04 10:29:59;;;;;;;2.43;2.00;;;21.40;56.60;;;;;;5037862;28;20426;-60
2023/07/04 10:32:26;;;;;;;3.43;2.77;;;21.30;57.30;;;;;;5025742;28;20471;-60
2023/07/04 10:34:52;;;;;;;4.00;2.80;;;21.30;57.30;;;;;;5036988;28;20413;-60
2023/07/04 10:37:21;;;;;;;2.93;2.10;;;21.20;57.20;;;;;;5033000;28;20462;-60
2023/07/04 10:39:48;;;;;;;4.20;2.30;;;21.20;58.30;;;;;;5039766;28;20868;-60
2023/07/04 10:42:24;;;;;;;2.60;2.00;;;21.20;58.20;;;;;;5032926;28;20453;-58
2023/07/04 10:44:55;;;;;;;3.07;2.20;;;21.20;58.30;;;;;;5034220;28;20547;-59
2023/07/04 10:47:30;;;;;;;2.30;2.10;;;21.30;58.60;;;;;;5027144;28;20434;-59
2023/07/04 10:50:01;;;;;;;2.63;2.03;;;21.30;58.80;;;;;;5030512;28;20430;-60
2023/07/04 10:52:32;;;;;;;3.17;2.00;;;21.30;59.20;;;;;;5033400;28;20453;-59
2023/07/04 10:54:59;;;;;;;2.30;2.10;;;21.30;59.10;;;;;;5034456;28;20434;-58
2023/07/04 10:57:43;;;;;;;2.70;2.10;;;21.30;58.90;;;;;;5035099;28;20431;-57
2023/07/04 11:00:26;;;;;;;2.00;1.80;;;21.40;59.40;;;;;;5029477;28;21011;-59
2023/07/04 11:03:00;;;;;;;2.10;1.73;;;21.50;59.00;;;;;;5029235;28;20422;-60
2023/07/04 11:05:40;;;;;;;3.17;2.10;;;21.50;58.40;;;;;;5035777;28;20516;-60
2023/07/04 11:08:15;;;;;;;2.67;2.30;;;21.50;58.80;;;;;;5029067;28;20513;-59
2023/07/04 11:10:43;;;;;;;2.30;2.10;;;21.50;59.10;;;;;;5033052;28;20447;-59
2023/07/04 11:13:17;;;;;;;2.97;2.33;;;21.60;59.60;;;;;;5038486;28;20522;-60
2023/07/04 11:15:46;;;;;;;3.10;2.67;;;21.60;59.50;;;;;;5034997;28;20434;-59
2023/07/04 11:18:16;;;;;;;2.80;2.20;;;21.70;59.40;;;;;;5036873;28;20476;-60
2023/07/04 11:21:16;;;;;;;4.80;1.93;;;21.80;59.40;;;;;;5037226;28;20957;-59
2023/07/04 11:24:07;;;;;;;3.67;2.07;;;21.90;59.20;;;;;;5019471;28;20426;-59
2023/07/04 11:26:49;;;;;;;3.37;2.20;;;22.00;58.90;;;;;;5043178;28;21192;-60
2023/07/04 11:29:22;;;;;;;4.03;1.67;;;22.10;57.40;;;;;;5037004;28;21085;-60
2023/07/04 11:32:02;;;;;;;2.97;2.00;;;22.30;57.40;;;;;;5031782;28;20561;-60
2023/07/04 11:35:09;;;;;;;1.97;1.70;;;22.40;56.40;;;;;;5040789;28;20421;-60
2023/07/04 11:38:02;;;;;;;2.40;1.77;;;22.40;56.00;;;;;;5041820;28;20448;-60
2023/07/04 11:40:31;;;;;;;1.77;1.43;;;22.40;56.30;;;;;;5030036;28;20449;-60
2023/07/04 11:43:04;;;;;;;2.43;1.63;;;22.60;56.30;;;;;;5042264;28;20462;-60
2023/07/04 11:45:31;;;;;;;2.07;1.53;;;22.70;55.80;;;;;;5042674;28;20440;-59
2023/07/04 11:48:14;;;;;;;1.83;1.67;;;22.70;55.90;;;;;;5044804;28;20458;-59
2023/07/04 11:50:47;;;;;;;1.83;1.63;;;22.90;55.60;;;;;;5042000;28;20973;-60
2023/07/04 11:53:17;;;;;;;2.53;1.60;;;23.10;55.70;;;;;;5043957;28;21060;-60
2023/07/04 11:55:44;;;;;;;2.10;1.07;;;23.10;54.40;;;;;;5037480;28;20446;-60
2023/07/04 11:58:09;;;;;;;1.20;1.03;;;23.30;54.30;;;;;;5032076;28;20463;-60
2023/07/04 12:00:35;;;;;;;1.73;1.57;;;23.40;54.10;;;;;;5040552;28;20488;-65
2023/07/04 12:03:21;;;;;;;2.13;1.60;;;23.70;53.80;;;;;;5043693;28;20206;-59
2023/07/04 12:05:52;;;;;;;1.50;1.40;;;24.10;53.60;;;;;;5040840;28;20183;-59
2023/07/04 12:08:31;;;;;;;4.60;1.40;;;24.50;53.80;;;;;;5030472;28;20437;-60
2023/07/04 12:11:03;;;;;;;2.27;1.70;;;25.10;53.40;;;;;;5041620;28;20472;-60
2023/07/04 12:13:32;;;;;;;1.00;0.83;;;25.60;52.20;;;;;;5033371;28;21649;-60
2023/07/04 12:16:00;;;;;;;0.93;0.70;;;25.80;46.30;;;;;;5039834;28;20414;-60
2023/07/04 12:18:27;;;;;;;1.00;0.80;;;25.80;46.60;;;;;;5045605;28;20448;-60
2023/07/04 12:20:55;;;;;;;1.10;0.97;;;25.60;45.60;;;;;;5037693;28;20446;-59
2023/07/04 12:23:21;;;;;;;3.20;0.93;;;25.20;45.30;;;;;;5045169;28;20421;-59
2023/07/04 12:25:49;;;;;;;1.00;0.90;;;24.90;46.00;;;;;;5030599;28;20492;-59
2023/07/04 12:28:17;;;;;;;2.03;0.83;;;24.70;46.30;;;;;;5043554;28;20175;-60
2023/07/04 12:30:55;;;;;;;1.33;1.10;;;24.60;46.30;;;;;;5035693;28;20510;-60
2023/07/04 12:33:22;;;;;;;0.80;0.70;;;24.70;46.70;;;;;;5037743;28;20550;-59
2023/07/04 12:35:59;;;;;;;0.93;0.83;;;24.80;46.60;;;;;;5035354;28;20871;-60
2023/07/04 12:38:27;;;;;;;1.57;0.90;;;25.10;47.80;;;;;;5039940;28;21372;-61
2023/07/04 12:40:54;;;;;;;1.37;0.70;;;25.70;47.60;;;;;;5045277;28;20499;-58
2023/07/04 12:43:21;;;;;;;0.60;0.60;;;26.00;44.90;;;;;;5044221;28;20479;-61
2023/07/04 12:45:47;;;;;;;1.80;0.70;;;25.80;43.40;;;;;;5038702;28;20432;-60
2023/07/04 12:48:14;;;;;;;0.60;0.60;;;25.40;44.00;;;;;;5039279;28;20517;-60
2023/07/04 12:50:48;;;;;;;0.90;0.80;;;25.60;45.60;;;;;;5042915;28;21056;-59
2023/07/04 12:53:15;;;;;;;0.70;0.70;;;25.70;44.70;;;;;;5044878;28;20476;-60
2023/07/04 12:55:42;;;;;;;1.50;1.00;;;25.90;44.30;;;;;;5029187;28;20510;-59
2023/07/04 12:58:13;;;;;;;0.80;0.70;;;26.10;44.40;;;;;;5040455;28;20442;-60